createdAt,value
2023-09-30T00:06:40.009Z,4.50
2023-09-30T00:16:44.140Z,4.57
2023-09-30T00:26:47.173Z,4.05
2023-09-30T00:36:51.490Z,3.40
2023-09-30T00:46:56.024Z,2.97
2023-09-30T00:57:02.030Z,3.00
2023-09-30T01:07:06.103Z,2.80
2023-09-30T01:17:12.580Z,2.30
2023-09-30T01:27:19.514Z,2.70
2023-09-30T01:37:22.587Z,3.22
2023-09-30T01:47:26.727Z,3.30
2023-09-30T01:57:29.480Z,2.83
2023-09-30T02:07:33.568Z,3.00
2023-09-30T02:17:36.347Z,2.65
2023-09-30T02:27:42.370Z,3.28
2023-09-30T02:37:45.354Z,2.70
2023-09-30T02:47:49.493Z,3.10
2023-09-30T02:57:52.322Z,3.17
2023-09-30T03:07:57.095Z,3.10
2023-09-30T03:18:01.119Z,3.50
2023-09-30T03:28:07.274Z,4.22
2023-09-30T03:38:11.034Z,3.40
2023-09-30T03:48:15.160Z,2.80
2023-09-30T03:58:19.452Z,2.88
2023-09-30T04:08:23.984Z,2.78
2023-09-30T04:18:27.315Z,3.05
2023-09-30T04:28:31.683Z,3.30
2023-09-30T04:38:34.361Z,3.58
2023-09-30T04:48:38.407Z,3.15
2023-09-30T04:58:41.188Z,3.60
2023-09-30T05:08:45.262Z,3.47
2023-09-30T05:18:49.306Z,3.60
2023-09-30T05:28:53.562Z,3.58
2023-09-30T05:38:57.402Z,3.95
2023-09-30T05:49:01.523Z,4.03
2023-09-30T05:59:05.997Z,4.65
2023-09-30T06:09:10.318Z,4.30
2023-09-30T06:19:13.096Z,4.53
2023-09-30T06:29:17.278Z,4.53
2023-09-30T06:39:20.334Z,5.35
2023-09-30T06:49:25.154Z,5.80
2023-09-30T06:59:27.854Z,4.47
2023-09-30T07:09:32.104Z,4.53
2023-09-30T07:19:34.785Z,4.43
2023-09-30T07:29:38.778Z,4.88
2023-09-30T07:39:41.431Z,4.28
2023-09-30T07:49:45.475Z,4.45
2023-09-30T07:59:48.183Z,4.30
2023-09-30T08:09:52.295Z,3.90
2023-09-30T08:19:55.022Z,3.75
2023-09-30T08:29:59.092Z,4.03
2023-09-30T08:40:02.132Z,4.13
2023-09-30T08:50:11.318Z,4.07
2023-09-30T09:00:15.807Z,3.47
2023-09-30T09:10:19.955Z,2.67
2023-09-30T09:20:25.271Z,2.38
2023-09-30T09:30:29.635Z,2.85
2023-09-30T09:40:34.150Z,2.50
2023-09-30T09:50:39.314Z,1.95
2023-09-30T10:00:43.664Z,2.15
2023-09-30T10:10:48.163Z,2.40
2023-09-30T10:20:50.957Z,2.00
2023-09-30T10:31:17.077Z,2.03
2023-09-30T10:41:53.228Z,1.90
2023-09-30T10:51:58.623Z,1.88
2023-09-30T11:02:02.016Z,1.52
2023-09-30T11:12:15.873Z,1.60
2023-09-30T11:22:21.502Z,1.88
2023-09-30T11:32:30.123Z,1.40
2023-09-30T11:42:34.734Z,1.83
2023-09-30T11:52:41.391Z,1.50
2023-09-30T12:02:44.440Z,1.60
2023-09-30T12:12:48.991Z,1.65
2023-09-30T12:22:52.911Z,1.50
2023-09-30T12:32:57.891Z,2.20
2023-09-30T12:43:00.681Z,1.45
2023-09-30T12:53:05.130Z,1.30
2023-09-30T13:03:08.947Z,2.72
2023-09-30T13:13:13.462Z,1.52
2023-09-30T13:23:17.355Z,1.85
2023-09-30T13:33:22.782Z,2.03
2023-09-30T13:43:25.521Z,1.95
2023-09-30T13:53:29.719Z,1.83
2023-09-30T14:03:32.565Z,1.63
2023-09-30T14:13:36.917Z,2.25
2023-09-30T14:23:40.465Z,2.00
2023-09-30T14:33:44.687Z,1.48
2023-09-30T14:43:47.613Z,1.33
2023-09-30T14:53:52.500Z,1.63
2023-09-30T15:03:55.291Z,1.30
2023-09-30T15:13:59.427Z,1.20
2023-09-30T15:24:03.792Z,1.45
2023-09-30T15:34:08.762Z,1.30
2023-09-30T15:44:11.573Z,1.70
2023-09-30T15:54:15.679Z,1.58
2023-09-30T16:04:18.818Z,1.50
2023-09-30T16:14:22.928Z,1.50
2023-09-30T16:24:25.588Z,1.77
2023-09-30T16:34:30.173Z,1.88
2023-09-30T16:44:33.078Z,2.22
2023-09-30T16:54:38.175Z,1.88
2023-09-30T17:04:43.840Z,2.40
2023-09-30T17:14:48.113Z,2.10
2023-09-30T17:24:50.948Z,2.58
2023-09-30T17:34:55.084Z,3.70
2023-09-30T17:44:57.827Z,4.10
2023-09-30T17:55:02.218Z,4.80
2023-09-30T18:05:06.443Z,4.50
2023-09-30T18:15:13.122Z,4.63
2023-09-30T18:25:16.374Z,4.45
2023-09-30T18:35:20.767Z,5.60
2023-09-30T18:45:24.038Z,5.05
2023-09-30T18:55:28.110Z,4.93
2023-09-30T19:05:31.270Z,5.65
2023-09-30T19:15:35.341Z,6.43
2023-09-30T19:25:39.192Z,4.53
2023-09-30T19:35:43.194Z,4.47
2023-09-30T19:45:45.966Z,4.63
2023-09-30T19:55:51.859Z,4.25
2023-09-30T20:05:54.548Z,4.97
2023-09-30T20:16:00.263Z,5.03
2023-09-30T20:26:03.430Z,4.47
2023-09-30T20:36:07.937Z,4.35
2023-09-30T20:46:10.887Z,4.40
2023-09-30T20:56:15.416Z,3.67
2023-09-30T21:06:19.310Z,3.90
2023-09-30T21:16:23.543Z,4.32
2023-09-30T21:26:26.445Z,4.45
2023-09-30T21:36:30.509Z,4.30
2023-09-30T21:46:33.892Z,4.65
2023-09-30T21:56:38.025Z,4.35
2023-09-30T22:06:40.695Z,4.10
2023-09-30T22:16:44.805Z,4.57
2023-09-30T22:26:47.537Z,4.72
2023-09-30T22:36:52.049Z,3.85
2023-09-30T22:46:54.949Z,3.70
2023-09-30T22:56:59.888Z,4.57
2023-09-30T23:07:05.079Z,3.90
2023-09-30T23:17:09.912Z,4.30
2023-09-30T23:37:32.577Z,5.75
2023-09-30T23:47:48.984Z,6.15
2023-09-30T23:57:56.122Z,6.55
